ローマ・レオナルド・ダ・ビンチ国際空港の過去48時間の天気

ローマ・レオナルド・ダ・ビンチ国際空港 (Roma Fiumicino)

現在時刻: 7/19 05:39 CEST (7/19 03:39 UTC) 以下の時間は現地時間です。

過去48時間のMETAR気象情報
時間 風向 風速(m/s) 視程 気温(℃) 湿度(%) 気圧(hPa) 天気現象
19 05:20 東北東 2 10km以上 19 94 1014
19 04:50 不定 1 10km以上 19 94 1014
19 04:20 2 10km以上 19 94 1014
19 03:50 東北東 2 10km以上 19 94 1014
19 03:20 北東 1 10km以上 19 94 1014
19 02:50 東北東 2 10km以上 20 88 1014
19 02:20 2 10km以上 20 88 1014
19 01:50 2 10km以上 21 83 1014
19 01:20 2 10km以上 21 83 1014
19 00:50 2 10km以上 22 83 1014
19 00:20 不定 1 10km以上 22 83 1014
18 23:50 南南西 2 10km以上 23 78 1014
18 23:20 1 10km以上 23 83 1014
18 22:50 2 10km以上 24 78 1014
18 22:20 2 10km以上 24 78 1013
18 21:50 南西 2 10km以上 24 78 1013
18 21:20 西南西 3 10km以上 23 83 1013
18 20:50 西 2 10km以上 24 78 1012
18 20:20 西南西 3 10km以上 25 74 1012
18 19:50 西 3 10km以上 25 74 1012
18 19:20 西南西 4 10km以上 26 65 1012
18 18:50 西南西 3 10km以上 26 65 1012
18 18:20 西南西 3 10km以上 27 58 1012
18 17:50 西 4 10km以上 27 62 1012
18 17:20 西南西 4 10km以上 27 62 1011
18 16:50 西 4 10km以上 27 62 1012
18 16:20 西 5 10km以上 27 66 1012
18 15:50 西南西 6 10km以上 27 66 1012
18 15:20 西南西 6 10km以上 27 62 1012
18 14:50 西南西 6 10km以上 28 58 1012
18 14:20 西南西 6 10km以上 28 58 1012
18 13:50 西南西 5 10km以上 28 55 1012
18 12:20 西南西 5 10km以上 28 48 1012
18 11:50 西南西 4 10km以上 28 51 1012
18 11:20 西南西 3 10km以上 27 58 1012
18 10:50 不定 2 10km以上 28 51 1012
18 10:20 不定 2 10km以上 27 48 1012
18 09:50 西 2 10km以上 26 51 1012
18 09:20 不定 1 10km以上 26 51 1012
18 08:50 東北東 2 10km以上 24 57 1012
18 08:20 2 10km以上 23 65 1011
18 07:50 東北東 2 10km以上 21 73 1011
18 07:20 東北東 2 10km以上 20 78 1011
18 06:50 東北東 2 10km以上 18 88 1011
18 06:20 東北東 2 10km以上 18 83 1011
18 05:50 1 10km以上 18 88 1011
18 05:20 東北東 2 10km以上 17 94 1011
18 04:50 不定 1 10km以上 17 94 1011
18 04:20 北東 2 10km以上 18 88 1011
18 03:50 北北東 1 10km以上 18 88 1011
18 03:20 1 10km以上 17 94 1011
18 02:50 不定 1 10km以上 19 88 1011
18 02:20 2 10km以上 19 88 1011
18 01:50 北北西 1 10km以上 19 88 1011
18 01:20 北北西 2 10km以上 19 88 1012
18 00:50 北東 1 10km以上 20 88 1012
18 00:20 東北東 1 10km以上 20 88 1012
17 23:50 2 10km以上 21 83 1011
17 23:20 不定 1 10km以上 21 83 1011
17 22:50 東北東 1 10km以上 22 78 1011
17 22:20 1 10km以上 23 73 1011
17 21:50 静穏 0 10km以上 23 73 1011
17 21:20 北西 1 10km以上 23 73 1011
17 20:50 西北西 2 10km以上 24 69 1011
17 20:20 北西 3 10km以上 25 65 1011
17 19:50 西北西 3 10km以上 25 65 1011
17 19:20 西北西 3 10km以上 26 61 1011
17 18:50 西 3 10km以上 26 65 1011
17 18:20 西 4 10km以上 27 58 1011
17 17:50 西南西 4 10km以上 27 51 1011
17 17:20 西南西 5 10km以上 27 58 1011
17 16:50 西南西 5 10km以上 28 58 1012
17 16:20 南南西 4 10km以上 29 52 1012
17 15:50 南南西 5 10km以上 28 51 1012
17 15:20 南南西 6 10km以上 28 51 1012
17 14:50 南南西 6 10km以上 29 40 1012
17 14:20 5 10km以上 30 38 1012
17 13:50 南南西 6 10km以上 29 40 1012
17 13:20 5 10km以上 29 43 1012
17 12:50 南南西 5 10km以上 29 45 1012
17 12:20 5 10km以上 28 48 1012
17 11:50 南南西 5 10km以上 29 45 1012
17 11:20 不定 2 10km以上 28 48 1012
17 10:50 東南東 3 10km以上 28 37 1012
17 10:20 東北東 4 10km以上 27 39 1012
17 09:50 東北東 4 10km以上 27 37 1012
17 09:20 東北東 4 10km以上 25 44 1013
17 08:50 東北東 5 10km以上 25 41 1012
17 08:20 東北東 4 10km以上 23 47 1012
17 07:50 北東 4 10km以上 22 50 1012
17 07:20 東北東 4 10km以上 21 53 1012
17 06:50 東北東 4 10km以上 21 53 1012
17 06:20 東北東 3 10km以上 19 60 1012
17 05:50 北東 3 10km以上 19 64 1012
LIRF 190320Z 06003KT CAVOK 19/18 Q1014 NOSIG
LIRF 190250Z VRB02KT CAVOK 19/18 Q1014 NOSIG
LIRF 190220Z 08003KT CAVOK 19/18 Q1014 NOSIG
LIRF 190150Z 06003KT CAVOK 19/18 Q1014 NOSIG
LIRF 190120Z 05002KT CAVOK 19/18 Q1014 NOSIG
LIRF 190050Z 07003KT CAVOK 20/18 Q1014 NOSIG
LIRF 190020Z 08003KT CAVOK 20/18 Q1014 NOSIG
LIRF 182350Z 10004KT CAVOK 21/18 Q1014 NOSIG
LIRF 182320Z 09003KT CAVOK 21/18 Q1014 NOSIG
LIRF 182250Z 09003KT CAVOK 22/19 Q1014 NOSIG
LIRF 182220Z VRB02KT CAVOK 22/19 Q1014 NOSIG
LIRF 182150Z 21004KT CAVOK 23/19 Q1014 NOSIG
LIRF 182120Z 18002KT CAVOK 23/20 Q1014 NOSIG
LIRF 182050Z 18004KT CAVOK 24/20 Q1014 NOSIG
LIRF 182020Z 19004KT 150V230 CAVOK 24/20 Q1013 NOSIG
LIRF 181950Z 22003KT 140V270 CAVOK 24/20 Q1013 NOSIG
LIRF 181920Z 25005KT CAVOK 23/20 Q1013 NOSIG
LIRF 181850Z 26004KT CAVOK 24/20 Q1012 NOSIG
LIRF 181820Z 25005KT CAVOK 25/20 Q1012 NOSIG
LIRF 181750Z 26006KT CAVOK 25/20 Q1012 NOSIG
LIRF 181720Z 25007KT CAVOK 26/19 Q1012 NOSIG
LIRF 181650Z 25006KT 220V280 CAVOK 26/19 Q1012 NOSIG
LIRF 181620Z 25005KT 220V280 CAVOK 27/18 Q1012 NOSIG
LIRF 181550Z 26008KT 230V300 CAVOK 27/19 Q1012 NOSIG
LIRF 181520Z 25008KT 220V300 CAVOK 27/19 Q1011 NOSIG
LIRF 181450Z 26008KT 220V290 CAVOK 27/19 Q1012 NOSIG
LIRF 181420Z 26009KT 230V300 CAVOK 27/20 Q1012 NOSIG
LIRF 181350Z 25011KT 220V290 CAVOK 27/20 Q1012 NOSIG
LIRF 181320Z 24011KT CAVOK 27/19 Q1012 NOSIG
LIRF 181250Z 24011KT 220V280 CAVOK 28/19 Q1012 NOSIG
LIRF 181220Z 25011KT 220V280 CAVOK 28/19 Q1012 NOSIG
LIRF 181150Z 24010KT 9999 FEW035 28/18 Q1012 NOSIG
LIRF 181020Z 25009KT 220V280 CAVOK 28/16 Q1012 NOSIG
LIRF 180950Z 25008KT 210V280 CAVOK 28/17 Q1012 NOSIG
LIRF 180920Z 25006KT 210V290 CAVOK 27/18 Q1012 NOSIG
LIRF 180850Z VRB04KT CAVOK 28/17 Q1012 NOSIG
LIRF 180820Z VRB03KT CAVOK 27/15 Q1012 NOSIG
LIRF 180750Z 27004KT 230V320 CAVOK 26/15 Q1012 NOSIG
LIRF 180720Z VRB02KT CAVOK 26/15 Q1012 NOSIG
LIRF 180650Z 07003KT 030V140 CAVOK 24/15 Q1012 NOSIG
LIRF 180620Z 08004KT 040V100 CAVOK 23/16 Q1011 NOSIG
LIRF 180550Z 06003KT CAVOK 21/16 Q1011 NOSIG
LIRF 180520Z 07003KT CAVOK 20/16 Q1011 NOSIG
LIRF 180450Z 06003KT CAVOK 18/16 Q1011 NOSIG
LIRF 180420Z 07003KT CAVOK 18/15 Q1011 NOSIG
LIRF 180350Z 09002KT CAVOK 18/16 Q1011 NOSIG
LIRF 180320Z 07003KT CAVOK 17/16 Q1011 NOSIG
LIRF 180250Z VRB01KT CAVOK 17/16 Q1011 NOSIG
LIRF 180220Z 04004KT CAVOK 18/16 Q1011 NOSIG
LIRF 180150Z 02002KT CAVOK 18/16 Q1011 NOSIG
LIRF 180120Z 36002KT CAVOK 17/16 Q1011 NOSIG
LIRF 180050Z VRB02KT CAVOK 19/17 Q1011 NOSIG
LIRF 180020Z 08004KT CAVOK 19/17 Q1011 NOSIG
LIRF 172350Z 34001KT CAVOK 19/17 Q1011 NOSIG
LIRF 172320Z 34003KT CAVOK 19/17 Q1012 NOSIG
LIRF 172250Z 05002KT CAVOK 20/18 Q1012 NOSIG
LIRF 172220Z 07002KT CAVOK 20/18 Q1012 NOSIG
LIRF 172150Z 09003KT CAVOK 21/18 Q1011 NOSIG
LIRF 172120Z VRB01KT CAVOK 21/18 Q1011 NOSIG
LIRF 172050Z 07002KT CAVOK 22/18 Q1011 NOSIG
LIRF 172020Z 01001KT CAVOK 23/18 Q1011 NOSIG
LIRF 171950Z 00000KT CAVOK 23/18 Q1011 NOSIG
LIRF 171920Z 32002KT CAVOK 23/18 Q1011 NOSIG
LIRF 171850Z 30003KT CAVOK 24/18 Q1011 NOSIG
LIRF 171820Z 31005KT CAVOK 25/18 Q1011 NOSIG
LIRF 171750Z 30005KT 270V330 CAVOK 25/18 Q1011 NOSIG
LIRF 171720Z 30006KT 260V330 CAVOK 26/18 Q1011 NOSIG
LIRF 171650Z 28006KT 230V310 CAVOK 26/19 Q1011 NOSIG
LIRF 171620Z 27007KT 240V300 CAVOK 27/18 Q1011 NOSIG
LIRF 171550Z 25008KT 220V290 CAVOK 27/16 Q1011 NOSIG
LIRF 171520Z 25009KT 210V280 CAVOK 27/18 Q1011 NOSIG
LIRF 171450Z 25010KT CAVOK 28/19 Q1012 NOSIG
LIRF 171420Z 20008KT 150V240 CAVOK 29/18 Q1012 NOSIG
LIRF 171350Z 21010KT 180V240 CAVOK 28/17 Q1012 NOSIG
LIRF 171320Z 20011KT CAVOK 28/17 Q1012 NOSIG
LIRF 171250Z 20011KT CAVOK 29/14 Q1012 NOSIG
LIRF 171220Z 19010KT 160V220 CAVOK 30/14 Q1012 NOSIG
LIRF 171150Z 20011KT 160V220 CAVOK 29/14 Q1012 NOSIG
LIRF 171120Z 19009KT 160V220 CAVOK 29/15 Q1012 NOSIG
LIRF 171050Z 20010KT CAVOK 29/16 Q1012 NOSIG
LIRF 171020Z 19009KT 160V220 CAVOK 28/16 Q1012 NOSIG
LIRF 170950Z 21009KT 160V250 CAVOK 29/16 Q1012 NOSIG
LIRF 170920Z VRB04KT CAVOK 28/16 Q1012 NOSIG
LIRF 170850Z 11006KT 070V160 CAVOK 28/12 Q1012 NOSIG
LIRF 170820Z 07007KT CAVOK 27/12 Q1012 NOSIG
LIRF 170750Z 07007KT 030V100 CAVOK 27/11 Q1012 NOSIG
LIRF 170720Z 07008KT CAVOK 25/12 Q1013 NOSIG
LIRF 170650Z 07009KT CAVOK 25/11 Q1012 NOSIG
LIRF 170620Z 06008KT CAVOK 23/11 Q1012 NOSIG
LIRF 170550Z 05008KT 9999 FEW020 22/11 Q1012 NOSIG
LIRF 170520Z 06007KT 9999 FEW020 21/11 Q1012 NOSIG
LIRF 170450Z 06007KT 9999 FEW015 21/11 Q1012 NOSIG
LIRF 170420Z 06005KT 9999 FEW015 19/11 Q1012 NOSIG
LIRF 170350Z 05005KT CAVOK 19/12 Q1012 NOSIG